Gold Creek, Arkansas
Current Conditions -  °F | °C
As of 3:58 AM on Friday 19 Dec 2014 (Local Time) from KLRF Reporting Station
Overcast Overcast  
Wind Chill: 41°   Ceiling: 800
Heat Index: 41°   Visibility: 10mi
Dew Point: 38°   Wind: 3mph
Humidity: 90%   Direction: 10°N
Pressure: 30.22"   Gusts: NA
Location:  35.0822°N, 92.366°W
Report Text: KLRF 190958Z AUTO 01003KT 10SM OVC008 05/04 A3022 RMK AO2 SLP238 T00500035
Loading
Personal Weather Stations






























Interactive Weather Map New forecast layout! Learn more

10-Day Weather Forecast

Advertisements
Track Severe Weather on mobile